SSEC Globe Logo

Space Science and Engineering Center

Surface Aviation Observations

KAIG 122315Z AUTO 00000KT 10SM OVC080 M12/M18 A2990 RMK AO2
     T11221180=
KAIG 122255Z AUTO 00000KT 10SM OVC080 M12/M18 A2991 RMK AO2
     T11251180=
KC29 122315Z AUTO 29003KT 10SM OVC065 M08/M15 A3001 RMK AO1
     T10771151=
KC29 122255Z AUTO 00000KT 10SM BKN065 M08/M16 A3000 RMK AO1
     T10801164=
KBCK 122315Z AUTO 23003KT 10SM OVC042 M08/M17 A2999 RMK AO2
     T10831168=
KBCK 122255Z AUTO 22003KT 10SM OVC044 M08/M17 A2999 RMK AO2
     T10841169=
KUBE 122315Z AUTO 17007KT 10SM OVC023 M11/M14 A2989 RMK AO2=
KUBE 122255Z AUTO 19007KT 10SM BKN027 OVC032 M11/M15 A2992
     RMK AO2=
KPVB 122315Z AUTO 25004KT 10SM OVC036 M06/M13 A3001 RMK AO1
     T10571133=
KPVB 122255Z AUTO 26006KT 10SM OVC040 M06/M14 A3002 RMK AO1
     T10571136=
KEZS 122315Z AUTO 00000KT 10SM CLR M09/M16 A2997 RMK AO2
     T10881161=
KEZS 122255Z AUTO 00000KT 10SM CLR M09/M16 A2997 RMK AO2
     T10861159=
KARV 122315Z AUTO 00000KT 10SM OVC080 M11/M15 A2988 RMK AO2
     T11151150=
KARV 122255Z AUTO 00000KT 10SM BKN080 M12/M15 A2989 RMK AO2
     T11201154=
KASX 122253Z AUTO 19004KT 10SM OVC055 M11/M17 A2994 RMK AO2
     SLP160 T11111167=
KATW 122245Z 27008KT 10SM SCT045 SCT100 M11/M18 A2996=
KAUW 122254Z AUTO 25004KT 10SM OVC075 M12/M18 A2993 RMK AO2
     SLP164 T11171183=
KBUU 122310Z AUTO RMK AO2 PWINO PNO=
KBUU 122250Z AUTO 28005KT 10SM CLR M03/M07 A3000 RMK AO2
     T10271074=
KCLI 122323Z AUTO 27007KT 10SM OVC090 M10/M17 A2998 RMK AO2=
KCMY 122315Z AUTO 00000KT 10SM BKN040 BKN047 OVC065 M08/M15
     A3000 RMK AO2 T10821153=
KCMY 122255Z AUTO 00000KT 10SM BKN042 OVC070 M08/M15 A3000
     RMK AO2 T10821155=
KCWA 122255Z 26005KT 10SM OVC075 M12/M17 A2995=
KDLL 122315Z AUTO 26004KT 10SM BKN060 OVC090 M09/M17 A2999
     RMK AO2 T10951172=
KDLL 122255Z AUTO 00000KT 10SM SCT060 BKN090 M09/M19 A3000
     RMK AO2 T10931186=
KEAU 122256Z 21005KT 10SM OVC027 M09/M16 A2996 RMK AO2
     SNB17E27 SLP167 P0000 T10941156=
KEFT 122315Z AUTO 28006KT 10SM BKN050 OVC075 M06/M18 A2999
     RMK AO2=
KEFT 122255Z AUTO 27007KT 10SM BKN060 OVC075 M06/M18 A3000
     RMK AO2=
KEGV 122315Z AUTO 27004KT 10SM BKN075 BKN085 M15/M18 A2988
     RMK AO2 T11491183=
KEGV 122255Z AUTO 24003KT 10SM SCT075 SCT085 M14/M18 A2987
     RMK AO2 T11451180=
KENW 122253Z 28004KT 10SM CLR M10/M16 A3000 RMK AO2 SLP172
     T11001161=
KETB 122315Z AUTO 28010KT 10SM CLR M09/M16 A2997 RMK AO2=
KETB 122255Z AUTO 28008KT 10SM CLR M09/M16 A2997 RMK AO2=
KFLD 122253Z AUTO 28008KT 10SM CLR M09/M18 A2999 RMK AO2
     SLP170 T10941183=
KGRB 122253Z 30003KT 10SM CLR M10/M17 A2998 RMK AO2 SLP166
     T11001167=
KHYR 122253Z AUTO 17003KT 9SM OVC043 M11/M17 A2991 RMK AO2
     SNE20B42E50 SLP156 P0000 T11061167=
KISW 122254Z AUTO 25004KT 10SM BKN065 M11/M17 A2999 RMK AO2
     SLP176 T11061172=
KJVL 122245Z 30008KT 10SM SCT090 M07/M19 A3001=
KLNL 122315Z AUTO 26003KT 10SM SCT070 M16/M18 A2989 RMK AO2
     T11651184=
KLNL 122255Z AUTO 00000KT 10SM CLR M16/M18 A2989 RMK AO2
     T11561176=
KLNR 122256Z AUTO 27006KT 10SM BKN050 OVC060 M07/M14 A3003
     RMK AO2 SLP177 T10721144=
KLSE 122253Z 21007KT 10SM OVC026 M06/M15 A3001 RMK AO2
     SLP182 T10611150=
KLUM 122315Z AUTO 18006KT 10SM BKN019 OVC024 M09/M14 A2996
     RMK AO2 T10881136=
KLUM 122255Z AUTO 16006KT 10SM OVC023 M09/M14 A2997 RMK AO2
     T10871141=
KMDZ 122315Z AUTO 23006KT 10SM BKN050 OVC065 M12/M17 A2991
     RMK AO2 T11171172=
KMDZ 122255Z AUTO 23004KT 10SM BKN050 OVC065 M12/M17 A2991
     RMK AO2 T11171175=
KMFI 122254Z AUTO 24004KT 10SM OVC055 M11/M17 A2993 RMK AO2
     SLP165 T11061172 TSNO=
KMKE 122252Z 30005KT 10SM FEW034 FEW090 FEW250 M07/M16 A3000
     RMK AO2 SLP171 T10721156=
KMRJ 122315Z AUTO 27004KT 10SM BKN044 BKN050 M06/M15 A2999
     RMK AO2=
KMRJ 122255Z AUTO 29003KT 10SM BKN044 BKN120 M06/M16 A2999
     RMK AO2=
KMSN 122253Z 28003KT 10SM FEW070 SCT250 M08/M17 A3000 RMK
     AO2 SLP175 T10831172=
KMTW 122256Z AUTO 31005KT 10SM CLR M11/M16 A2999 RMK AO2
     SLP176 T11061156 FZRANO=
KMWC 122245Z 30008KT 10SM SKC M09/M17 A3000=
KOEO 122315Z AUTO 15006KT 10SM OVC018 M09/M12 A2994 RMK AO2
     T10881120=
KOEO 122255Z AUTO 16007KT 10SM OVC022 M09/M12 A2996 RMK AO2
     T10901120=
KOSH 122253Z 29006KT 10SM CLR M10/M17 A2998 RMK AO2 SLP175
     T11001167=
KOVS 122253Z AUTO 24003KT 10SM OVC043 M06/M15 A3004 RMK AO2
     SLP186 T10561150=
KPBH 122315Z AUTO 24005KT 10SM OVC070 M12/M19 A2990 RMK AO2
     T11201191=
KPBH 122255Z AUTO 23004KT 10SM OVC070 M12/M19 A2989 RMK AO2
     T11201188=
KPCZ 122315Z AUTO 00000KT 10SM OVC090 M10/M17 A2999 RMK AO2
     T10971172=
KPCZ 122255Z AUTO 29003KT 10SM BKN090 M10/M17 A2999 RMK AO2
     T11001174=
KPDC 122315Z AUTO 00000KT 10SM SCT031 BKN045 OVC065 M05/M14
     A3002 RMK AO2 T10471140=
KPDC 122255Z AUTO 00000KT 10SM SCT033 BKN048 OVC050 M05/M14
     A3003 RMK AO2 T10471143=
KRAC 122253Z AUTO 31004KT 10SM CLR M08/M16 A3002 RMK AO2
     SLP176 T10831161=
KRCX 122315Z AUTO 19005KT 10SM SCT040 BKN050 OVC060 M10/M17
     A2994 RMK AO2 T11011167=
KRCX 122255Z AUTO 21005KT 10SM -SN SCT048 OVC055 M10/M17
     A2995 RMK AO2 T11011171=
KRHI 122253Z AUTO 00000KT 10SM OVC080 M12/M17 A2988 RMK AO2
     SLP153 T11221172=
KRNH 122315Z AUTO 14006KT 10SM OVC020 M09/M13 A2992 RMK AO2
     T10921131=
KRNH 122255Z AUTO 17008KT 10SM OVC022 M09/M13 A2994 RMK AO2
     T10931131=
KRPD 122315Z AUTO 00000KT 10SM BKN027 OVC032 M10/M14 A2994
     RMK AO2 T11041143=
KRPD 122255Z AUTO 16003KT 10SM OVC035 M10/M14 A2995 RMK AO2
     T11031144=
KRRL 122315Z AUTO 00000KT 10SM OVC070 M11/M19 A2993 RMK AO2
     T11071188=
KRRL 122255Z AUTO 29003KT 10SM OVC080 M11/M19 A2993 RMK AO2
     T11101195=
KRYV 122315Z AUTO 00000KT 10SM CLR M09/M17 A2999 RMK AO2
     T10911170=
KRYV 122255Z AUTO 28003KT 10SM CLR M09/M17 A2999 RMK AO2
     T10901170=
KRZN 122315Z AUTO 17005KT 2 1/2SM -SN OVC023 M10/M13 A2990
     RMK AO2 T11001130=
KRZN 122255Z AUTO 17005KT 10SM OVC023 M10/M13 A2992 RMK AO2
     T10981131=
KSBM 122253Z AUTO 27005KT 10SM CLR M09/M15 A2997 RMK AO2
     SLP165 T10941150 TSNO=
KSTE 122315Z AUTO 27003KT 10SM OVC075 M12/M19 A2997 RMK AO2
     T11161192=
KSTE 122255Z AUTO 27006KT 10SM SCT075 M12/M19 A2997 RMK AO2
     T11171195=
KSUE 122256Z AUTO 31009KT 10SM OVC036 M09/M16 A2996 RMK AO2
     SLP170 T10891156 FZRANO=
KSUW 122315Z AUTO 19003KT 7SM UP OVC040 M10/M12 A2992 RMK
     AO2 T10981124=
KSUW 122255Z AUTO 20003KT 2 1/2SM UP BKN040 OVC055 M10/M12
     A2992 RMK AO2 T10981125=
KTKV 122315Z AUTO 00000KT 10SM OVC075 M12/M19 A2991 RMK AO2
     T11201190=
KTKV 122255Z AUTO 00000KT 10SM OVC075 M12/M19 A2991 RMK AO2
     T11201189=
KUES 122245Z 29010KT 10SM SKC M09/M17 A2999=
KUNU 122315Z AUTO 00000KT 10SM CLR M10/M18 A2999 RMK AO2
     T11051180=
KUNU 122255Z AUTO 00000KT 10SM CLR M10/M18 A3000 RMK AO2
     T11001179=
KVOK 122256Z 29003KT 10SM BKN040 OVC100 M08/M17 A2999 RMK
     AO2A SLP176=
KVOK 122256Z 29003KT 10SM BKN040 OVC100 M08/M17 A2999 RMK
     AO2A SLP176=
METAR KVOK 122256Z 29003KT 10SM BKN040 OVC100 M08/M17 A2999
     RMK AO2A SLP176=
METAR KVOK 122256Z 29003KT 10SM BKN040 OVC100 M08/M17 A2999
     RMK AO2A SLP176=
KY50 122256Z AUTO 28005KT 10SM CLR M11/M18 A2999 RMK AO2
     SLP185 T11061178=
KY51 122315Z AUTO 22003KT 10SM SCT025 OVC032 M08/M13 A2996
     RMK AO1 T10831135=
KY51 122255Z AUTO 25004KT 10SM BKN034 OVC040 M08/M14 A2997
     RMK AO1 T10851143=
KDBQ 122253Z 28005KT 10SM SCT038 BKN046 OVC070 M06/M13 A3002
     RMK AO2 SLP185 T10611128=
KRST 122254Z 19007KT 10SM OVC018 M06/M08 A2993 RMK AO2
     SLP162 T10561083=
KMSP 122253Z 15008KT 10SM SCT019 OVC034 M06/M10 A2992 RMK
     AO2 SLP149 T10611100=
KRFD 122254Z 27011KT 10SM BKN080 BKN250 M07/M14 A3005 RMK
     AO2 SLP188 T10721139=
KORD 122251Z 27007KT 10SM FEW035 SCT250 M07/M14 A3002 RMK
     AO2 SLP174 T10721139=